Rottevalle, Netherlands
Current Conditions -  °F | °C
As of 12:55 PM on Sunday 23 Nov 2014 (Local Time) from EHLW Reporting Station
Scattered Clouds Scattered Clouds  
Wind Chill: 54°   Ceiling: Unl
Heat Index: 54°   Visibility: 6mi
Dew Point: 50°   Wind: 9mph
Humidity: 88%   Direction: 180°S
Pressure: 29.97"   Gusts: NA
Location:  53.15°N, 6.1°E
Report Text: EHLW 231155Z AUTO 18008KT 9999 SCT170 SCT340 12/10 Q1015 BLU
Loading
Personal Weather Stations






























Interactive Weather Map New forecast layout! Learn more

10-Day Weather Forecast

Advertisements
Track Severe Weather on mobile